createdAt,value
2022-09-28T00:01:16.347Z,9.15
2022-09-28T00:03:45.608Z,9.19
2022-09-28T00:06:16.266Z,9.21
2022-09-28T00:08:44.857Z,9.24
2022-09-28T00:11:19.040Z,9.25
2022-09-28T00:13:53.098Z,9.27
2022-09-28T00:16:24.326Z,9.28
2022-09-28T00:18:54.281Z,9.29
2022-09-28T00:21:31.227Z,9.30
2022-09-28T00:24:22.933Z,9.31
2022-09-28T00:26:55.571Z,9.29
2022-09-28T00:29:35.942Z,9.29
2022-09-28T00:32:07.794Z,9.31
2022-09-28T00:34:41.383Z,9.33
2022-09-28T00:37:10.225Z,9.36
2022-09-28T00:39:41.340Z,9.36
2022-09-28T00:42:24.980Z,9.36
2022-09-28T00:44:56.936Z,9.32
2022-09-28T00:47:43.328Z,9.28
2022-09-28T00:50:21.645Z,9.26
2022-09-28T00:52:57.831Z,9.30
2022-09-28T00:55:35.378Z,9.37
2022-09-28T00:58:07.017Z,9.41
2022-09-28T01:00:35.474Z,9.41
2022-09-28T01:03:04.097Z,9.41
2022-09-28T01:05:33.999Z,9.38
2022-09-28T01:08:02.986Z,9.36
2022-09-28T01:10:31.690Z,9.36
2022-09-28T01:12:59.719Z,9.35
2022-09-28T01:15:33.353Z,9.39
2022-09-28T01:18:25.646Z,9.46
2022-09-28T01:21:16.865Z,9.52
2022-09-28T01:24:00.427Z,9.56
2022-09-28T01:26:46.110Z,9.53
2022-09-28T01:29:46.225Z,9.45
2022-09-28T01:32:33.683Z,9.36
2022-09-28T01:35:28.790Z,9.31
2022-09-28T01:38:10.495Z,9.32
2022-09-28T01:40:39.520Z,9.33
2022-09-28T01:43:27.325Z,9.32
2022-09-28T01:46:14.671Z,9.34
2022-09-28T01:48:51.629Z,9.37
2022-09-28T01:51:29.357Z,9.37
2022-09-28T01:54:03.777Z,9.39
2022-09-28T01:56:37.420Z,9.42
2022-09-28T01:59:23.438Z,9.44
2022-09-28T02:02:15.748Z,9.46
2022-09-28T02:04:50.848Z,9.45
2022-09-28T02:07:27.173Z,9.44
2022-09-28T02:10:00.810Z,9.38
2022-09-28T02:12:41.642Z,9.32
2022-09-28T02:15:17.598Z,9.30
2022-09-28T02:17:46.620Z,9.31
2022-09-28T02:20:16.199Z,9.30
2022-09-28T02:22:50.133Z,9.24
2022-09-28T02:25:31.450Z,9.18
2022-09-28T02:28:04.372Z,9.10
2022-09-28T02:30:36.684Z,9.07
2022-09-28T02:33:14.287Z,9.04
2022-09-28T02:35:43.266Z,9.00
2022-09-28T02:38:12.704Z,8.97
2022-09-28T02:40:46.749Z,8.93
2022-09-28T02:43:40.741Z,8.95
2022-09-28T02:46:32.910Z,8.96
2022-09-28T02:49:21.770Z,8.97
2022-09-28T02:52:14.215Z,8.96
2022-09-28T02:55:09.920Z,8.93
2022-09-28T02:57:45.835Z,8.93
2022-09-28T03:00:24.345Z,8.92
2022-09-28T03:03:25.801Z,8.90
2022-09-28T03:06:13.684Z,8.83
2022-09-28T03:09:00.272Z,8.79
2022-09-28T03:11:54.639Z,8.78
2022-09-28T03:14:23.101Z,8.81
2022-09-28T03:16:54.296Z,8.82
2022-09-28T03:19:27.595Z,8.81
2022-09-28T03:21:55.794Z,8.77
2022-09-28T03:24:23.632Z,8.75
2022-09-28T03:26:51.973Z,8.74
2022-09-28T03:29:22.468Z,8.77
2022-09-28T03:31:55.177Z,8.82
2022-09-28T03:34:23.213Z,8.85
2022-09-28T03:36:51.075Z,8.85
2022-09-28T03:39:19.107Z,8.85
2022-09-28T03:41:46.913Z,8.84
2022-09-28T03:44:14.940Z,8.77
2022-09-28T03:46:42.808Z,8.70
2022-09-28T03:49:10.812Z,8.67
2022-09-28T03:51:38.689Z,8.67
2022-09-28T03:54:06.883Z,8.67
2022-09-28T03:56:35.415Z,8.65
2022-09-28T03:59:04.624Z,8.62
2022-09-28T04:01:33.438Z,8.55
2022-09-28T04:04:19.226Z,8.51
2022-09-28T04:06:53.688Z,8.50
2022-09-28T04:09:21.497Z,8.44
2022-09-28T04:12:03.452Z,8.39
2022-09-28T04:14:33.898Z,8.30
2022-09-28T04:17:02.219Z,8.25
2022-09-28T04:19:32.880Z,8.20
2022-09-28T04:22:02.217Z,8.15
2022-09-28T04:24:30.856Z,8.16
2022-09-28T04:27:18.599Z,8.17
2022-09-28T04:29:46.389Z,8.19
2022-09-28T04:32:15.486Z,8.19
2022-09-28T04:34:44.457Z,8.18
2022-09-28T04:37:12.731Z,8.16
2022-09-28T04:39:44.035Z,8.14
2022-09-28T04:42:16.114Z,8.11
2022-09-28T04:44:44.123Z,8.07
2022-09-28T04:47:13.249Z,8.02
2022-09-28T04:50:04.176Z,7.97
2022-09-28T04:52:37.904Z,7.95
2022-09-28T04:55:06.719Z,7.98
2022-09-28T04:57:35.745Z,8.01
2022-09-28T05:00:05.495Z,8.06
2022-09-28T05:02:35.993Z,8.10
2022-09-28T05:05:44.834Z,8.12
2022-09-28T05:08:38.149Z,8.13
2022-09-28T05:11:11.382Z,8.12
2022-09-28T05:13:41.978Z,8.10
2022-09-28T05:16:12.299Z,8.10
2022-09-28T05:19:00.386Z,8.10
2022-09-28T05:21:29.502Z,8.10
2022-09-28T05:23:58.507Z,8.08
2022-09-28T05:26:28.310Z,8.05
2022-09-28T05:28:56.811Z,8.02
2022-09-28T05:31:43.589Z,8.03
2022-09-28T05:34:41.503Z,8.06
2022-09-28T05:37:13.581Z,8.09
2022-09-28T05:39:41.417Z,8.16
2022-09-28T05:42:09.562Z,8.22
2022-09-28T05:44:38.568Z,8.29
2022-09-28T05:47:06.488Z,8.36
2022-09-28T05:49:34.687Z,8.43
2022-09-28T05:52:03.096Z,8.51
2022-09-28T05:54:31.977Z,8.59
2022-09-28T05:56:59.890Z,8.65
2022-09-28T05:59:27.889Z,8.71
2022-09-28T06:01:55.778Z,8.77
2022-09-28T06:04:23.747Z,8.85
2022-09-28T06:06:52.530Z,8.89
2022-09-28T06:09:25.185Z,8.93
2022-09-28T06:12:16.835Z,8.96
2022-09-28T06:14:49.333Z,8.98
2022-09-28T06:17:17.264Z,8.99
2022-09-28T06:19:52.474Z,9.00
2022-09-28T06:22:39.695Z,8.99
2022-09-28T06:25:11.501Z,9.00
2022-09-28T06:27:42.783Z,9.05
2022-09-28T06:30:11.495Z,9.11
2022-09-28T06:32:42.292Z,9.21
2022-09-28T06:35:10.591Z,9.30
2022-09-28T06:37:45.702Z,9.38
2022-09-28T06:40:17.019Z,9.45
2022-09-28T06:42:45.413Z,9.51
2022-09-28T06:45:27.955Z,9.57
2022-09-28T06:48:25.109Z,9.64
2022-09-28T06:50:54.016Z,9.70
2022-09-28T06:53:29.847Z,9.79
2022-09-28T06:56:02.693Z,9.87
2022-09-28T06:58:32.510Z,9.95
2022-09-28T07:01:01.328Z,9.98
2022-09-28T07:03:34.030Z,9.97
2022-09-28T07:06:21.281Z,9.99
2022-09-28T07:09:32.337Z,10.04
2022-09-28T07:12:22.716Z,10.17
2022-09-28T07:14:57.459Z,10.17
2022-09-28T07:17:27.599Z,10.20
2022-09-28T07:20:03.515Z,10.26
2022-09-28T07:22:48.770Z,10.31
2022-09-28T07:25:26.066Z,10.36
2022-09-28T07:28:12.479Z,10.47
2022-09-28T07:31:09.812Z,10.50
2022-09-28T07:33:54.099Z,10.49
2022-09-28T07:36:44.602Z,10.46
2022-09-28T07:39:12.541Z,10.41
2022-09-28T07:41:41.538Z,10.40
2022-09-28T07:44:09.336Z,10.38
2022-09-28T07:46:38.269Z,10.38
2022-09-28T07:49:12.987Z,10.41
2022-09-28T07:52:01.662Z,10.46
2022-09-28T07:54:31.326Z,10.47
2022-09-28T07:57:01.809Z,10.49
2022-09-28T07:59:38.578Z,10.55
2022-09-28T08:02:25.933Z,10.62
2022-09-28T08:04:54.537Z,10.70
2022-09-28T08:07:24.170Z,10.83
2022-09-28T08:09:59.632Z,10.96
2022-09-28T08:12:27.847Z,10.98
2022-09-28T08:15:14.293Z,11.03
2022-09-28T08:17:57.992Z,11.15
2022-09-28T08:20:51.601Z,11.27
2022-09-28T08:23:20.623Z,11.35
2022-09-28T08:25:49.570Z,11.45
2022-09-28T08:28:18.174Z,11.53
2022-09-28T08:30:48.612Z,11.62
2022-09-28T08:33:35.663Z,11.71
2022-09-28T08:36:22.718Z,11.75
2022-09-28T08:39:02.464Z,11.80
2022-09-28T08:41:48.730Z,11.78
2022-09-28T08:44:51.956Z,11.85
2022-09-28T08:48:27.340Z,11.94
2022-09-28T08:51:20.075Z,11.99
2022-09-28T08:54:20.341Z,11.95
2022-09-28T08:57:15.684Z,11.95
2022-09-28T08:59:53.792Z,11.99
2022-09-28T09:02:36.410Z,12.03
2022-09-28T09:05:23.707Z,12.07
2022-09-28T09:08:35.213Z,12.14
2022-09-28T09:11:25.468Z,12.15
2022-09-28T09:14:24.811Z,12.16
2022-09-28T09:17:00.451Z,12.16
2022-09-28T09:19:56.194Z,12.27
2022-09-28T09:23:01.429Z,12.35
2022-09-28T09:25:55.205Z,12.38
2022-09-28T09:28:42.242Z,12.33
2022-09-28T09:32:04.156Z,12.25
2022-09-28T09:35:30.607Z,12.16
2022-09-28T09:38:46.530Z,12.16
2022-09-28T09:41:54.825Z,12.08
2022-09-28T09:45:02.871Z,12.01
2022-09-28T09:47:56.656Z,11.85
2022-09-28T09:50:40.131Z,11.78
2022-09-28T09:53:29.764Z,11.72
2022-09-28T09:56:15.364Z,11.68
2022-09-28T09:59:13.969Z,11.56
2022-09-28T10:02:29.500Z,11.42
2022-09-28T10:05:22.393Z,11.30
2022-09-28T10:07:56.494Z,11.24
2022-09-28T10:10:29.506Z,11.23
2022-09-28T10:13:10.370Z,11.19
2022-09-28T10:15:41.495Z,11.12
2022-09-28T10:18:30.204Z,11.07
2022-09-28T10:21:23.239Z,11.06
2022-09-28T10:24:33.882Z,11.06
2022-09-28T10:27:08.726Z,11.10
2022-09-28T10:29:55.947Z,11.13
2022-09-28T10:32:26.406Z,11.15
2022-09-28T10:35:32.708Z,11.19
2022-09-28T10:38:15.977Z,11.25
2022-09-28T10:41:01.329Z,11.31
2022-09-28T10:44:06.662Z,11.34
2022-09-28T10:46:42.468Z,11.39
2022-09-28T10:49:18.365Z,11.43
2022-09-28T10:51:55.006Z,11.44
2022-09-28T10:54:28.431Z,11.39
2022-09-28T10:57:00.095Z,11.39
2022-09-28T10:59:48.232Z,11.39
2022-09-28T11:02:36.001Z,11.37
2022-09-28T11:05:07.992Z,11.31
2022-09-28T11:07:49.505Z,11.22
2022-09-28T11:10:26.197Z,11.12
2022-09-28T11:12:56.946Z,11.09
2022-09-28T11:15:29.959Z,11.03
2022-09-28T11:18:19.094Z,10.99
2022-09-28T11:20:47.356Z,10.97
2022-09-28T11:23:22.788Z,10.96
2022-09-28T11:26:09.547Z,10.93
2022-09-28T11:28:39.186Z,10.90
2022-09-28T11:31:12.577Z,10.89
2022-09-28T11:34:36.498Z,10.93
2022-09-28T11:37:44.568Z,11.02
2022-09-28T11:40:19.379Z,11.00
2022-09-28T11:42:55.958Z,11.04
2022-09-28T11:46:02.966Z,11.10
2022-09-28T11:48:46.237Z,11.12
2022-09-28T11:51:29.045Z,11.19
2022-09-28T11:54:14.466Z,11.26
2022-09-28T11:56:47.878Z,11.34
2022-09-28T11:59:55.634Z,11.36
2022-09-28T12:02:31.100Z,11.42
2022-09-28T12:05:17.108Z,11.47
2022-09-28T12:07:54.529Z,11.51
2022-09-28T12:11:12.582Z,11.53
2022-09-28T12:14:03.957Z,11.53
2022-09-28T12:17:04.267Z,11.48
2022-09-28T12:20:07.403Z,11.49
2022-09-28T12:22:59.544Z,11.53
2022-09-28T12:25:34.075Z,11.61
2022-09-28T12:28:07.730Z,11.77
2022-09-28T12:30:40.649Z,11.99
2022-09-28T12:33:13.449Z,12.18
2022-09-28T12:36:06.245Z,12.32
2022-09-28T12:39:30.669Z,12.43
2022-09-28T12:42:21.075Z,12.38
2022-09-28T12:45:11.361Z,12.31
2022-09-28T12:48:01.407Z,12.26
2022-09-28T12:50:41.597Z,12.20
2022-09-28T12:53:32.470Z,12.12
2022-09-28T12:56:11.763Z,12.07
2022-09-28T12:58:49.412Z,12.06
2022-09-28T13:01:52.005Z,12.08
2022-09-28T13:04:32.124Z,12.11
2022-09-28T13:07:19.505Z,12.13
2022-09-28T13:10:01.637Z,12.12
2022-09-28T13:12:46.978Z,12.08
2022-09-28T13:15:29.563Z,12.05
2022-09-28T13:18:15.680Z,12.03
2022-09-28T13:21:08.910Z,12.10
2022-09-28T13:23:43.319Z,12.29
2022-09-28T13:26:32.392Z,12.69
2022-09-28T13:29:16.246Z,13.07
2022-09-28T13:31:59.797Z,13.15
2022-09-28T13:34:35.381Z,13.04
2022-09-28T13:37:24.484Z,12.93
2022-09-28T13:39:59.921Z,12.80
2022-09-28T13:42:59.099Z,12.67
2022-09-28T13:45:40.566Z,12.55
2022-09-28T13:48:22.777Z,12.53
2022-09-28T13:50:53.633Z,12.55
2022-09-28T13:53:44.278Z,12.55
2022-09-28T13:56:22.602Z,12.53
2022-09-28T13:58:58.685Z,12.51
2022-09-28T14:01:36.540Z,12.54
2022-09-28T14:04:23.593Z,12.61
2022-09-28T14:07:11.286Z,12.69
2022-09-28T14:09:49.829Z,12.82
2022-09-28T14:12:35.149Z,13.00
2022-09-28T14:15:27.529Z,13.36
2022-09-28T14:18:26.394Z,13.84
2022-09-28T14:21:13.999Z,14.52
2022-09-28T14:24:27.556Z,15.07
2022-09-28T14:27:17.366Z,15.57
2022-09-28T14:29:45.851Z,15.63
2022-09-28T14:32:20.330Z,15.72
2022-09-28T14:34:57.045Z,18.47
2022-09-28T14:37:49.417Z,21.74
2022-09-28T14:40:43.698Z,25.13
2022-09-28T14:43:36.523Z,27.66
2022-09-28T14:46:13.250Z,29.07
2022-09-28T14:49:03.899Z,30.60
2022-09-28T14:51:33.305Z,31.38
2022-09-28T14:54:05.680Z,32.01
2022-09-28T14:56:40.399Z,32.31
2022-09-28T14:59:17.448Z,31.98
2022-09-28T15:01:51.231Z,29.29
2022-09-28T15:04:20.807Z,27.29
2022-09-28T15:06:52.046Z,28.42
2022-09-28T15:09:37.148Z,28.65
2022-09-28T15:12:16.051Z,29.20
2022-09-28T15:14:53.884Z,28.25
2022-09-28T15:17:30.582Z,29.07
2022-09-28T15:20:26.627Z,27.92
2022-09-28T15:22:59.286Z,27.39
2022-09-28T15:25:29.759Z,27.51
2022-09-28T15:28:13.362Z,25.29
2022-09-28T15:30:41.248Z,22.81
2022-09-28T15:33:43.051Z,21.13
2022-09-28T15:36:24.431Z,19.70
2022-09-28T15:39:06.653Z,18.50
2022-09-28T15:41:34.888Z,18.19
2022-09-28T15:44:08.520Z,19.19
2022-09-28T15:46:39.149Z,19.51
2022-09-28T15:49:20.159Z,19.00
2022-09-28T15:51:53.394Z,18.78
2022-09-28T15:54:42.902Z,18.32
2022-09-28T15:57:28.783Z,17.70
2022-09-28T16:00:00.903Z,17.12
2022-09-28T16:02:29.881Z,16.64
2022-09-28T16:05:01.798Z,16.27
2022-09-28T16:07:42.527Z,15.92
2022-09-28T16:10:25.546Z,15.46
2022-09-28T16:12:59.244Z,14.94
2022-09-28T16:15:35.464Z,14.60
2022-09-28T16:18:20.321Z,14.28
2022-09-28T16:20:52.119Z,14.00
2022-09-28T16:23:34.167Z,13.76
2022-09-28T16:26:07.072Z,13.55
2022-09-28T16:28:37.600Z,13.48
2022-09-28T16:31:15.562Z,13.33
2022-09-28T16:33:46.336Z,13.22
2022-09-28T16:36:19.944Z,13.07
2022-09-28T16:38:49.191Z,12.89
2022-09-28T16:41:21.677Z,12.71
2022-09-28T16:43:56.569Z,12.52
2022-09-28T16:46:32.272Z,12.37
2022-09-28T16:49:03.675Z,12.26
2022-09-28T16:51:33.112Z,12.11
2022-09-28T16:54:34.164Z,11.97
2022-09-28T16:57:04.932Z,11.84
2022-09-28T16:59:33.331Z,11.74
2022-09-28T17:02:01.370Z,11.66
2022-09-28T17:04:29.297Z,11.60
2022-09-28T17:06:58.536Z,11.54
2022-09-28T17:09:26.455Z,11.50
2022-09-28T17:11:56.391Z,11.46
2022-09-28T17:14:24.589Z,11.41
2022-09-28T17:17:08.186Z,11.34
2022-09-28T17:19:37.762Z,11.29
2022-09-28T17:22:08.125Z,11.23
2022-09-28T17:24:36.457Z,11.16
2022-09-28T17:27:05.539Z,11.11
2022-09-28T17:29:33.422Z,11.04
2022-09-28T17:32:02.872Z,10.99
2022-09-28T17:34:30.695Z,10.94
2022-09-28T17:36:59.092Z,10.90
2022-09-28T17:39:27.426Z,10.85
2022-09-28T17:41:55.287Z,10.82
2022-09-28T17:44:23.367Z,10.80
2022-09-28T17:46:54.117Z,10.77
2022-09-28T17:49:22.073Z,10.72
2022-09-28T17:51:50.548Z,10.68
2022-09-28T17:54:20.942Z,10.65
2022-09-28T17:56:49.348Z,10.62
2022-09-28T17:59:19.192Z,10.56
2022-09-28T18:01:48.594Z,10.49
2022-09-28T18:04:39.766Z,10.42
2022-09-28T18:07:05.680Z,10.33
2022-09-28T18:09:33.522Z,10.25
2022-09-28T18:12:04.748Z,10.18
2022-09-28T18:14:32.990Z,10.12
2022-09-28T18:17:01.035Z,10.08
2022-09-28T18:19:32.158Z,10.06
2022-09-28T18:22:01.858Z,10.04
2022-09-28T18:24:32.602Z,10.03
2022-09-28T18:27:00.694Z,10.01
2022-09-28T18:29:32.913Z,10.00
2022-09-28T18:32:02.919Z,9.99
2022-09-28T18:34:31.831Z,9.98
2022-09-28T18:37:00.415Z,9.95
2022-09-28T18:39:29.048Z,9.91
2022-09-28T18:41:57.206Z,9.87
2022-09-28T18:44:25.606Z,9.84
2022-09-28T18:46:54.600Z,9.82
2022-09-28T18:49:23.335Z,9.81
2022-09-28T18:51:52.151Z,9.77
2022-09-28T18:54:20.403Z,9.70
2022-09-28T18:56:48.471Z,9.62
2022-09-28T18:59:16.855Z,9.57
2022-09-28T19:01:45.271Z,9.52
2022-09-28T19:04:15.202Z,9.49
2022-09-28T19:06:45.192Z,9.46
2022-09-28T19:09:13.536Z,9.43
2022-09-28T19:11:41.548Z,9.40
2022-09-28T19:14:11.717Z,9.35
2022-09-28T19:16:39.728Z,9.31
2022-09-28T19:19:11.095Z,9.26
2022-09-28T19:21:43.341Z,9.22
2022-09-28T19:24:16.178Z,9.20
2022-09-28T19:26:46.850Z,9.19
2022-09-28T19:29:15.651Z,9.15
2022-09-28T19:31:43.627Z,9.12
2022-09-28T19:34:14.295Z,9.07
2022-09-28T19:36:43.483Z,9.03
2022-09-28T19:39:15.383Z,8.97
2022-09-28T19:41:46.013Z,8.95
2022-09-28T19:44:21.302Z,8.93
2022-09-28T19:46:49.144Z,8.91
2022-09-28T19:49:21.427Z,8.87
2022-09-28T19:52:11.532Z,8.83
2022-09-28T19:54:39.818Z,8.77
2022-09-28T19:57:08.900Z,8.71
2022-09-28T19:59:37.407Z,8.71
2022-09-28T20:02:07.620Z,8.70
2022-09-28T20:04:35.838Z,8.69
2022-09-28T20:07:05.337Z,8.67
2022-09-28T20:09:33.256Z,8.64
2022-09-28T20:12:01.326Z,8.61
2022-09-28T20:14:33.987Z,8.57
2022-09-28T20:17:04.341Z,8.53
2022-09-28T20:19:33.689Z,8.50
2022-09-28T20:22:03.331Z,8.52
2022-09-28T20:24:32.712Z,8.55
2022-09-28T20:27:01.566Z,8.57
2022-09-28T20:29:32.235Z,8.59
2022-09-28T20:32:01.284Z,8.56
2022-09-28T20:34:29.066Z,8.53
2022-09-28T20:36:56.850Z,8.49
2022-09-28T20:39:24.800Z,8.46
2022-09-28T20:41:52.753Z,8.42
2022-09-28T20:44:20.728Z,8.38
2022-09-28T20:46:52.470Z,8.37
2022-09-28T20:49:20.386Z,8.39
2022-09-28T20:51:48.248Z,8.42
2022-09-28T20:54:15.931Z,8.44
2022-09-28T20:56:43.860Z,8.48
2022-09-28T20:59:12.158Z,8.49
2022-09-28T21:01:40.885Z,8.48
2022-09-28T21:04:10.332Z,8.45
2022-09-28T21:06:40.561Z,8.40
2022-09-28T21:09:10.709Z,8.38
2022-09-28T21:11:39.063Z,8.35
2022-09-28T21:14:08.274Z,8.32
2022-09-28T21:16:38.174Z,8.30
2022-09-28T21:19:06.063Z,8.25
2022-09-28T21:21:33.883Z,8.22
2022-09-28T21:24:02.466Z,8.18
2022-09-28T21:26:32.945Z,8.13
2022-09-28T21:29:04.464Z,8.07
2022-09-28T21:31:48.746Z,8.00
2022-09-28T21:34:19.494Z,7.93
2022-09-28T21:36:51.450Z,7.89
2022-09-28T21:39:20.358Z,7.87
2022-09-28T21:41:49.472Z,7.90
2022-09-28T21:44:19.299Z,7.95
2022-09-28T21:46:47.743Z,8.00
2022-09-28T21:49:15.829Z,8.04
2022-09-28T21:51:43.683Z,8.06
2022-09-28T21:54:12.151Z,8.06
2022-09-28T21:56:40.095Z,8.04
2022-09-28T21:59:07.899Z,8.00
2022-09-28T22:01:36.111Z,7.96
2022-09-28T22:04:03.933Z,7.91
2022-09-28T22:06:32.085Z,7.84
2022-09-28T22:09:00.205Z,7.78
2022-09-28T22:11:28.936Z,7.73
2022-09-28T22:14:00.138Z,7.67
2022-09-28T22:16:29.593Z,7.61
2022-09-28T22:18:59.216Z,7.56
2022-09-28T22:21:30.267Z,7.51
2022-09-28T22:24:02.534Z,7.48
2022-09-28T22:26:33.791Z,7.42
2022-09-28T22:29:07.765Z,7.40
2022-09-28T22:31:40.650Z,7.38
2022-09-28T22:34:10.058Z,7.38
2022-09-28T22:36:37.859Z,7.36
2022-09-28T22:39:06.536Z,7.37
2022-09-28T22:41:35.615Z,7.37
2022-09-28T22:44:03.477Z,7.34
2022-09-28T22:46:32.661Z,7.33
2022-09-28T22:49:01.285Z,7.31
2022-09-28T22:51:30.175Z,7.27
2022-09-28T22:53:58.737Z,7.24
2022-09-28T22:56:27.095Z,7.19
2022-09-28T22:58:56.823Z,7.13
2022-09-28T23:01:28.144Z,7.05
2022-09-28T23:03:57.785Z,6.95
2022-09-28T23:06:27.910Z,6.93
2022-09-28T23:08:55.836Z,6.95
2022-09-28T23:11:23.692Z,6.97
2022-09-28T23:13:53.883Z,6.98
2022-09-28T23:16:23.735Z,6.96
2022-09-28T23:18:52.917Z,6.93
2022-09-28T23:21:23.619Z,6.91
2022-09-28T23:23:54.892Z,6.91
2022-09-28T23:26:24.399Z,6.93
2022-09-28T23:28:53.903Z,6.95
2022-09-28T23:31:24.620Z,6.96
2022-09-28T23:33:57.556Z,6.95
2022-09-28T23:36:25.762Z,6.95
2022-09-28T23:38:54.083Z,6.94
2022-09-28T23:41:21.962Z,6.92
2022-09-28T23:43:49.899Z,6.92
2022-09-28T23:46:20.902Z,6.92
2022-09-28T23:48:49.960Z,6.93
2022-09-28T23:51:17.852Z,6.86
2022-09-28T23:53:46.609Z,6.81
2022-09-28T23:56:15.054Z,6.73
2022-09-28T23:58:42.966Z,6.63
